Time;durP1;ratioP1;P1;durP2;ratioP2;P2;SDS_P1;SDS_P2;PMS_P1;PMS_P2;Temp;Humidity;BMP_temperature;BMP_pressure;BME280_temperature;BME280_humidity;BME280_pressure;Samples;Min_cycle;Max_cycle;Signal;HPM_P1;HPM_P2
2022/08/19 00:01:09;;;;;;;;;16.33;16.33;;;;;;;;4988663;28;45908;-60
2022/08/19 00:03:34;;;;;;;;;16.67;16.67;;;;;;;;4984359;28;45414;-60
2022/08/19 00:06:00;;;;;;;;;15.33;13.33;;;;;;;;4977558;28;45557;-60
2022/08/19 00:08:25;;;;;;;;;14.33;13.33;;;;;;;;4997821;28;45384;-60
2022/08/19 00:10:50;;;;;;;;;15.25;15.25;;;;;;;;4995259;28;46229;-60
2022/08/19 00:13:15;;;;;;;;;20.33;16.67;;;;;;;;4984412;28;45456;-60
2022/08/19 00:15:41;;;;;;;;;19.00;16.00;;;;;;;;4991883;28;45486;-60
2022/08/19 00:18:06;;;;;;;;;16.00;16.00;;;;;;;;4991677;28;45325;-60
2022/08/19 00:20:31;;;;;;;;;15.75;14.25;;;;;;;;4977962;28;45494;-59
2022/08/19 00:22:57;;;;;;;;;14.00;14.00;;;;;;;;4985551;28;45508;-60
2022/08/19 00:25:22;;;;;;;;;17.00;16.33;;;;;;;;4978591;28;45534;-60
2022/08/19 00:27:48;;;;;;;;;16.00;15.00;;;;;;;;4979470;28;45527;-60
2022/08/19 00:30:13;;;;;;;;;15.67;14.67;;;;;;;;4984442;28;45496;-60
2022/08/19 00:32:39;;;;;;;;;12.25;12.00;;;;;;;;4990093;28;45532;-59
2022/08/19 00:35:04;;;;;;;;;14.00;12.00;;;;;;;;4985011;28;45322;-59
2022/08/19 00:37:30;;;;;;;;;15.33;13.67;;;;;;;;4982422;28;45677;-60
2022/08/19 00:39:55;;;;;;;;;11.67;11.67;;;;;;;;4996500;28;47123;-60
2022/08/19 00:42:21;;;;;;;;;16.00;14.67;;;;;;;;4982274;28;45377;-60
2022/08/19 00:44:47;;;;;;;;;14.00;13.00;;;;;;;;4978065;28;45474;-60
2022/08/19 00:47:12;;;;;;;;;12.33;12.33;;;;;;;;4975224;28;45430;-60
2022/08/19 00:49:41;;;;;;;;;14.00;13.67;;;;;;;;4976687;28;45781;-60
2022/08/19 00:52:08;;;;;;;;;15.00;13.67;;;;;;;;4989618;28;45436;-60
2022/08/19 00:54:36;;;;;;;;;16.33;15.00;;;;;;;;4984549;28;45389;-60
2022/08/19 00:57:04;;;;;;;;;13.33;13.33;;;;;;;;4979779;28;45526;-60
2022/08/19 00:59:29;;;;;;;;;14.00;14.00;;;;;;;;4986947;28;46837;-60
2022/08/19 01:01:55;;;;;;;;;13.33;13.33;;;;;;;;4991750;28;45503;-60
2022/08/19 01:04:20;;;;;;;;;13.00;13.00;;;;;;;;4983677;28;45491;-59
2022/08/19 01:06:45;;;;;;;;;11.67;11.67;;;;;;;;4991438;28;45556;-60
2022/08/19 01:09:10;;;;;;;;;13.33;13.33;;;;;;;;4978529;28;45417;-60
2022/08/19 01:11:38;;;;;;;;;13.00;13.00;;;;;;;;4986279;28;45547;-59
2022/08/19 01:14:05;;;;;;;;;14.00;14.00;;;;;;;;4978464;28;45354;-59
2022/08/19 01:16:31;;;;;;;;;15.00;15.00;;;;;;;;4991631;28;45376;-60
2022/08/19 01:18:56;;;;;;;;;16.33;15.33;;;;;;;;4976487;28;46050;-60
2022/08/19 01:21:21;;;;;;;;;18.67;16.33;;;;;;;;4982313;28;45389;-60
2022/08/19 01:23:47;;;;;;;;;17.00;15.00;;;;;;;;4994193;28;45376;-60
2022/08/19 01:26:17;;;;;;;;;13.67;11.67;;;;;;;;4994382;28;45575;-60
2022/08/19 01:28:43;;;;;;;;;14.67;14.00;;;;;;;;4991861;28;46285;-60
2022/08/19 01:31:15;;;;;;;;;14.67;14.33;;;;;;;;4985249;28;45492;-60
2022/08/19 01:33:41;;;;;;;;;14.00;13.00;;;;;;;;4986821;28;45406;-60
2022/08/19 01:36:12;;;;;;;;;13.33;13.33;;;;;;;;4990893;28;45429;-60
2022/08/19 01:38:39;;;;;;;;;14.67;13.00;;;;;;;;4984848;28;45988;-59
2022/08/19 01:41:05;;;;;;;;;14.00;14.00;;;;;;;;4984695;28;45413;-60
2022/08/19 01:43:31;;;;;;;;;14.33;14.33;;;;;;;;4999620;28;45487;-60
2022/08/19 01:45:56;;;;;;;;;14.00;14.00;;;;;;;;4982660;28;45491;-60
2022/08/19 01:48:23;;;;;;;;;12.33;12.33;;;;;;;;4987308;28;46125;-60
2022/08/19 01:50:48;;;;;;;;;15.00;13.00;;;;;;;;4990579;28;45388;-60
2022/08/19 01:53:13;;;;;;;;;14.67;14.33;;;;;;;;4984636;28;45339;-60
2022/08/19 01:55:41;;;;;;;;;12.00;11.00;;;;;;;;4984169;28;45482;-60
2022/08/19 01:58:08;;;;;;;;;13.00;13.00;;;;;;;;4997102;28;45522;-60
2022/08/19 02:00:33;;;;;;;;;13.33;13.33;;;;;;;;4994980;28;45460;-60
2022/08/19 02:02:59;;;;;;;;;13.33;13.33;;;;;;;;4996246;28;45318;-60
2022/08/19 02:05:24;;;;;;;;;14.00;14.00;;;;;;;;4988808;28;45561;-60
2022/08/19 02:07:49;;;;;;;;;17.00;15.00;;;;;;;;4984809;28;46072;-60
2022/08/19 02:10:17;;;;;;;;;14.33;14.33;;;;;;;;4983082;28;45490;-60
2022/08/19 02:12:42;;;;;;;;;12.33;12.33;;;;;;;;4988304;28;45483;-61
2022/08/19 02:15:07;;;;;;;;;12.00;12.00;;;;;;;;4979264;28;45360;-60
2022/08/19 02:17:33;;;;;;;;;14.67;14.00;;;;;;;;4994318;28;45648;-60
2022/08/19 02:19:58;;;;;;;;;18.33;17.00;;;;;;;;4988836;28;45495;-60
2022/08/19 02:22:25;;;;;;;;;11.67;11.67;;;;;;;;4990349;28;45613;-60
2022/08/19 02:24:50;;;;;;;;;12.33;12.00;;;;;;;;4997154;28;45478;-60
2022/08/19 02:27:16;;;;;;;;;15.33;15.00;;;;;;;;4995639;28;45983;-60
2022/08/19 02:29:41;;;;;;;;;14.33;13.33;;;;;;;;4984604;28;45385;-60
2022/08/19 02:32:07;;;;;;;;;12.00;12.00;;;;;;;;4986700;28;45349;-60
2022/08/19 02:34:32;;;;;;;;;15.67;14.67;;;;;;;;4986944;28;45657;-60
2022/08/19 02:36:57;;;;;;;;;18.00;13.00;;;;;;;;4989947;28;45394;-60
2022/08/19 02:39:22;;;;;;;;;14.33;13.33;;;;;;;;4980981;28;45306;-61
2022/08/19 02:41:49;;;;;;;;;14.00;14.00;;;;;;;;4996886;28;45400;-60
2022/08/19 02:44:14;;;;;;;;;13.67;12.00;;;;;;;;4971740;28;45443;-61
2022/08/19 02:46:39;;;;;;;;;13.33;12.33;;;;;;;;4989332;28;46276;-61
2022/08/19 02:49:06;;;;;;;;;12.33;12.33;;;;;;;;4989975;28;45365;-60
2022/08/19 02:51:33;;;;;;;;;14.67;14.00;;;;;;;;4985973;28;45429;-61
2022/08/19 02:53:59;;;;;;;;;13.67;13.67;;;;;;;;4986751;28;45613;-60
2022/08/19 02:56:26;;;;;;;;;12.33;12.33;;;;;;;;4985127;28;45375;-60
2022/08/19 02:58:52;;;;;;;;;14.33;14.33;;;;;;;;4998428;28;45336;-60
2022/08/19 03:01:32;;;;;;;;;14.00;14.00;;;;;;;;4992706;28;45495;-60
2022/08/19 03:03:59;;;;;;;;;13.33;13.33;;;;;;;;4991849;28;45492;-61
2022/08/19 03:06:24;;;;;;;;;13.67;12.67;;;;;;;;4985439;28;46895;-60
2022/08/19 03:08:49;;;;;;;;;14.00;14.00;;;;;;;;4990229;28;45311;-60
2022/08/19 03:11:19;;;;;;;;;9.75;9.75;;;;;;;;4989755;28;45309;-60
2022/08/19 03:13:45;;;;;;;;;14.00;13.00;;;;;;;;4998133;28;45578;-60
2022/08/19 03:16:11;;;;;;;;;15.50;13.50;;;;;;;;4990081;28;45397;-60
2022/08/19 03:18:37;;;;;;;;;14.00;14.00;;;;;;;;4983921;28;45449;-60
2022/08/19 03:21:02;;;;;;;;;19.00;16.00;;;;;;;;4995773;28;45451;-60
2022/08/19 03:23:28;;;;;;;;;15.00;13.67;;;;;;;;4996138;28;45404;-60
2022/08/19 03:25:53;;;;;;;;;14.67;14.67;;;;;;;;4988702;28;45631;-60
2022/08/19 03:28:19;;;;;;;;;11.67;10.33;;;;;;;;4988620;28;45398;-61
2022/08/19 03:30:56;;;;;;;;;16.00;13.00;;;;;;;;4996371;28;45445;-60
2022/08/19 03:33:21;;;;;;;;;16.00;14.67;;;;;;;;4986424;28;45429;-60
2022/08/19 03:35:46;;;;;;;;;15.33;15.33;;;;;;;;4965680;28;45901;-60
2022/08/19 03:38:12;;;;;;;;;13.67;13.67;;;;;;;;4997626;28;45503;-60
2022/08/19 03:40:37;;;;;;;;;14.00;13.33;;;;;;;;4990227;28;45438;-60
2022/08/19 03:43:02;;;;;;;;;12.33;12.00;;;;;;;;4979958;28;45620;-60
2022/08/19 03:45:28;;;;;;;;;14.00;11.33;;;;;;;;4995957;28;45415;-60
2022/08/19 03:47:53;;;;;;;;;12.33;11.33;;;;;;;;4977930;28;45441;-60
2022/08/19 03:50:19;;;;;;;;;10.67;10.33;;;;;;;;4978893;28;45432;-60
2022/08/19 03:52:48;;;;;;;;;13.00;13.00;;;;;;;;4993497;28;45566;-60
2022/08/19 03:55:13;;;;;;;;;14.67;13.33;;;;;;;;4976708;28;45449;-60
2022/08/19 03:57:38;;;;;;;;;11.33;11.33;;;;;;;;4995554;28;45436;-60
2022/08/19 04:00:05;;;;;;;;;13.33;13.33;;;;;;;;4987703;28;45428;-60
2022/08/19 04:02:30;;;;;;;;;16.00;14.33;;;;;;;;4990675;28;45405;-61
2022/08/19 04:04:55;;;;;;;;;14.67;12.00;;;;;;;;4993359;28;45421;-60
2022/08/19 04:07:21;;;;;;;;;15.67;14.00;;;;;;;;4990349;28;45499;-60
2022/08/19 04:09:46;;;;;;;;;12.00;11.00;;;;;;;;4997501;28;45473;-60
2022/08/19 04:12:12;;;;;;;;;12.50;12.50;;;;;;;;4985192;28;45555;-61
2022/08/19 04:14:37;;;;;;;;;12.67;12.67;;;;;;;;4997059;28;45404;-61
2022/08/19 04:17:04;;;;;;;;;13.67;11.67;;;;;;;;5005922;28;45386;-59
2022/08/19 04:19:30;;;;;;;;;13.33;12.67;;;;;;;;4997162;28;45427;-60
2022/08/19 04:21:55;;;;;;;;;11.67;11.67;;;;;;;;4972082;28;45650;-60
2022/08/19 04:24:21;;;;;;;;;11.00;10.33;;;;;;;;4987048;28;46298;-61
2022/08/19 04:26:47;;;;;;;;;14.33;11.33;;;;;;;;4979477;28;45392;-60
2022/08/19 04:29:16;;;;;;;;;10.00;10.00;;;;;;;;4984099;28;45534;-60
2022/08/19 04:31:43;;;;;;;;;11.00;11.00;;;;;;;;4990036;28;45560;-60
2022/08/19 04:34:10;;;;;;;;;9.00;9.00;;;;;;;;4993030;28;46126;-60
2022/08/19 04:36:36;;;;;;;;;11.75;10.25;;;;;;;;4993412;28;45507;-60
2022/08/19 04:39:13;;;;;;;;;10.00;10.00;;;;;;;;4997062;28;45445;-60
2022/08/19 04:44:22;;;;;;;;;8.00;8.00;;;;;;;;4996745;28;45427;-60
2022/08/19 04:46:48;;;;;;;;;8.00;7.33;;;;;;;;4982289;28;45506;-60
2022/08/19 04:49:14;;;;;;;;;8.00;8.00;;;;;;;;4976903;28;45425;-61
2022/08/19 04:51:40;;;;;;;;;7.00;7.00;;;;;;;;4988292;28;45535;-61
2022/08/19 04:54:05;;;;;;;;;9.00;9.00;;;;;;;;4996426;28;45491;-60
2022/08/19 04:56:30;;;;;;;;;9.75;9.75;;;;;;;;4996505;28;45479;-61
2022/08/19 04:58:56;;;;;;;;;7.75;7.00;;;;;;;;4996738;28;45358;-61
2022/08/19 05:01:26;;;;;;;;;8.67;8.67;;;;;;;;4995810;28;45433;-60
2022/08/19 05:03:52;;;;;;;;;10.00;8.00;;;;;;;;4992936;28;45565;-61
2022/08/19 05:06:19;;;;;;;;;11.00;9.00;;;;;;;;4983875;28;45448;-60
2022/08/19 05:08:45;;;;;;;;;6.25;6.25;;;;;;;;4996715;28;45443;-60
2022/08/19 05:11:11;;;;;;;;;10.00;8.00;;;;;;;;4995975;28;45541;-60
2022/08/19 05:13:37;;;;;;;;;9.50;8.25;;;;;;;;4996192;28;45423;-60
2022/08/19 05:16:02;;;;;;;;;10.50;8.50;;;;;;;;4978497;28;45493;-60
2022/08/19 05:23:57;;;;;;;;;6.75;6.75;;;;;;;;4995985;28;45905;-60
2022/08/19 05:26:22;;;;;;;;;9.75;7.50;;;;;;;;4995987;28;45426;-60
2022/08/19 05:28:47;;;;;;;;;8.50;8.50;;;;;;;;4978487;28;45416;-60
2022/08/19 05:31:12;;;;;;;;;6.50;5.50;;;;;;;;4996145;28;45373;-61
2022/08/19 05:33:39;;;;;;;;;7.50;6.75;;;;;;;;4978342;28;46442;-60
2022/08/19 05:36:04;;;;;;;;;6.75;6.75;;;;;;;;4995788;28;45536;-61
2022/08/19 05:38:29;;;;;;;;;6.50;6.50;;;;;;;;4978463;28;45454;-61
2022/08/19 05:40:55;;;;;;;;;6.00;6.00;;;;;;;;4996047;28;45642;-62
2022/08/19 05:43:20;;;;;;;;;6.00;6.00;;;;;;;;4995659;28;45460;-61
2022/08/19 05:45:45;;;;;;;;;7.25;7.25;;;;;;;;4995467;28;45374;-61
2022/08/19 05:48:11;;;;;;;;;7.00;7.00;;;;;;;;4993943;28;45515;-61
2022/08/19 05:50:36;;;;;;;;;5.00;5.00;;;;;;;;4995914;28;45424;-60
2022/08/19 05:53:02;;;;;;;;;6.00;6.00;;;;;;;;4995684;28;46442;-61
2022/08/19 05:55:27;;;;;;;;;6.25;6.25;;;;;;;;4995647;28;45419;-60
2022/08/19 05:57:52;;;;;;;;;9.50;8.00;;;;;;;;4994289;28;45707;-61
2022/08/19 06:00:17;;;;;;;;;9.25;6.25;;;;;;;;4996001;28;45536;-60
2022/08/19 06:02:42;;;;;;;;;6.50;6.25;;;;;;;;4995505;28;46196;-61
2022/08/19 06:05:08;;;;;;;;;6.00;6.00;;;;;;;;4995786;28;45401;-61
2022/08/19 06:07:34;;;;;;;;;6.25;6.25;;;;;;;;4995680;28;45755;-60
2022/08/19 06:09:59;;;;;;;;;7.00;7.00;;;;;;;;4995575;28;45495;-63
2022/08/19 06:12:28;;;;;;;;;6.00;6.00;;;;;;;;4995554;28;45341;-61
2022/08/19 06:14:54;;;;;;;;;5.50;5.50;;;;;;;;4995658;28;45424;-62
2022/08/19 06:17:20;;;;;;;;;6.25;5.25;;;;;;;;4996153;28;45616;-62
2022/08/19 06:19:46;;;;;;;;;6.00;6.00;;;;;;;;4997607;28;45520;-62
2022/08/19 06:22:12;;;;;;;;;4.25;4.25;;;;;;;;4998684;28;45484;-62
2022/08/19 06:24:38;;;;;;;;;5.75;4.75;;;;;;;;5000060;28;45450;-62
2022/08/19 06:27:05;;;;;;;;;5.00;5.00;;;;;;;;4998969;28;45421;-61
2022/08/19 06:29:31;;;;;;;;;5.50;4.50;;;;;;;;4995036;28;45662;-61
2022/08/19 06:31:57;;;;;;;;;5.00;5.00;;;;;;;;4982862;28;46260;-60
2022/08/19 06:34:23;;;;;;;;;5.50;5.50;;;;;;;;4978521;28;45433;-60
2022/08/19 06:36:49;;;;;;;;;5.00;4.00;;;;;;;;4978828;28;45478;-60
2022/08/19 06:39:19;;;;;;;;;6.00;6.00;;;;;;;;4978980;28;45464;-61
2022/08/19 06:41:46;;;;;;;;;4.00;4.00;;;;;;;;4978691;28;46148;-61
2022/08/19 06:44:11;;;;;;;;;3.25;3.25;;;;;;;;4978986;28;45386;-61
2022/08/19 06:46:37;;;;;;;;;3.00;3.00;;;;;;;;4979060;28;45420;-61
2022/08/19 06:49:03;;;;;;;;;3.25;3.25;;;;;;;;4960925;28;45521;-59
2022/08/19 06:51:29;;;;;;;;;2.75;2.75;;;;;;;;4978571;28;45427;-61
2022/08/19 06:53:54;;;;;;;;;4.25;2.00;;;;;;;;4978884;28;45521;-61
2022/08/19 06:56:21;;;;;;;;;6.00;5.00;;;;;;;;4978771;28;45432;-60
2022/08/19 06:58:48;;;;;;;;;4.00;3.00;;;;;;;;4978762;28;45555;-60
2022/08/19 07:01:13;;;;;;;;;2.00;2.00;;;;;;;;4978317;28;45548;-61
2022/08/19 07:03:39;;;;;;;;;5.00;4.00;;;;;;;;4978485;28;45417;-60
2022/08/19 07:06:09;;;;;;;;;3.00;3.00;;;;;;;;4978738;28;45617;-61
2022/08/19 07:08:36;;;;;;;;;2.25;2.25;;;;;;;;4978619;28;45508;-59
2022/08/19 07:11:02;;;;;;;;;2.25;2.25;;;;;;;;4978107;28;46329;-61
2022/08/19 07:13:27;;;;;;;;;2.00;2.00;;;;;;;;4978363;28;45393;-60
2022/08/19 07:15:52;;;;;;;;;2.25;2.25;;;;;;;;4978400;28;45526;-61
2022/08/19 07:18:18;;;;;;;;;5.50;4.50;;;;;;;;4978162;28;45613;-60
2022/08/19 07:20:44;;;;;;;;;6.75;4.75;;;;;;;;4978262;28;45404;-61
2022/08/19 07:23:09;;;;;;;;;4.00;3.00;;;;;;;;4978127;28;45338;-61
2022/08/19 07:25:36;;;;;;;;;2.00;2.00;;;;;;;;4978446;28;45415;-61
2022/08/19 07:28:01;;;;;;;;;2.75;2.75;;;;;;;;4978118;28;45490;-60
2022/08/19 07:30:26;;;;;;;;;2.75;2.75;;;;;;;;4977813;28;46029;-60
2022/08/19 07:32:52;;;;;;;;;3.75;3.75;;;;;;;;4978104;28;45416;-60
2022/08/19 07:35:19;;;;;;;;;4.50;3.00;;;;;;;;4978446;28;45342;-61
2022/08/19 07:37:44;;;;;;;;;5.50;3.50;;;;;;;;4978113;28;45438;-60
2022/08/19 07:40:09;;;;;;;;;7.00;7.00;;;;;;;;4978146;28;45897;-60
2022/08/19 07:42:36;;;;;;;;;7.00;6.00;;;;;;;;4977919;28;45465;-61
2022/08/19 07:45:02;;;;;;;;;7.00;4.25;;;;;;;;4977889;28;45513;-60
2022/08/19 07:47:28;;;;;;;;;7.00;6.25;;;;;;;;4960298;28;45641;-61
2022/08/19 07:49:53;;;;;;;;;4.25;4.25;;;;;;;;4977241;28;46045;-61
2022/08/19 07:52:18;;;;;;;;;3.50;3.50;;;;;;;;4977696;28;45440;-60
2022/08/19 07:54:43;;;;;;;;;3.50;3.50;;;;;;;;4977559;28;45451;-60
2022/08/19 07:57:09;;;;;;;;;2.75;2.75;;;;;;;;4977783;28;45437;-59
2022/08/19 07:59:34;;;;;;;;;3.00;3.00;;;;;;;;4977677;28;45884;-60
2022/08/19 08:02:00;;;;;;;;;3.00;2.00;;;;;;;;4977680;28;45494;-60
2022/08/19 08:09:53;;;;;;;;;2.75;2.75;;;;;;;;4978050;28;45516;-59
2022/08/19 08:12:25;;;;;;;;;4.00;4.00;;;;;;;;4977746;28;45499;-60
2022/08/19 08:14:54;;;;;;;;;3.00;3.00;;;;;;;;4977319;28;45421;-62
2022/08/19 08:17:20;;;;;;;;;3.00;3.00;;;;;;;;4977507;28;45518;-61
2022/08/19 08:19:46;;;;;;;;;1.00;1.00;;;;;;;;4977048;28;45396;-61
2022/08/19 08:23:22;;;;;;;;;3.00;2.00;;;;;;;;4977381;28;45428;-61
2022/08/19 08:25:03;;;;;;;;;2.75;2.75;;;;;;;;4977262;28;45436;-61
2022/08/19 08:27:30;;;;;;;;;3.25;3.25;;;;;;;;4977315;28;45620;-60
2022/08/19 08:29:56;;;;;;;;;6.50;5.50;;;;;;;;4976761;28;45370;-60
2022/08/19 08:32:21;;;;;;;;;3.00;3.00;;;;;;;;4977227;28;45358;-61
2022/08/19 08:34:46;;;;;;;;;2.00;2.00;;;;;;;;4977542;28;45401;-60
2022/08/19 08:37:11;;;;;;;;;3.00;3.00;;;;;;;;4977200;28;45548;-61
2022/08/19 08:39:36;;;;;;;;;2.00;2.00;;;;;;;;4976758;28;46333;-61
2022/08/19 08:42:22;;;;;;;;;3.00;3.00;;;;;;;;4975962;28;45359;-61
2022/08/19 08:44:57;;;;;;;;;1.00;1.00;;;;;;;;4977255;28;45382;-61
2022/08/19 08:47:25;;;;;;;;;3.25;3.25;;;;;;;;4959358;28;45374;-62
2022/08/19 08:49:54;;;;;;;;;4.75;4.75;;;;;;;;4976698;28;45447;-60
2022/08/19 08:52:28;;;;;;;;;6.75;6.25;;;;;;;;4976776;28;45441;-61
2022/08/19 08:54:56;;;;;;;;;4.25;4.25;;;;;;;;4976713;28;45486;-61
2022/08/19 08:57:42;;;;;;;;;3.00;2.50;;;;;;;;4977160;28;45537;-60
2022/08/19 09:00:10;;;;;;;;;3.00;3.00;;;;;;;;4976474;28;46181;-62
2022/08/19 09:02:35;;;;;;;;;2.75;2.75;;;;;;;;4976810;28;45529;-61
2022/08/19 09:05:01;;;;;;;;;4.75;3.00;;;;;;;;4977022;28;45421;-61
2022/08/19 09:07:29;;;;;;;;;2.75;2.50;;;;;;;;4976849;28;45416;-59
2022/08/19 09:10:01;;;;;;;;;4.00;3.00;;;;;;;;4976884;28;46684;-60
2022/08/19 09:12:48;;;;;;;;;4.00;4.00;;;;;;;;4976634;28;45482;-59
2022/08/19 09:15:14;;;;;;;;;3.00;3.00;;;;;;;;4959473;28;45450;-60
2022/08/19 09:17:40;;;;;;;;;3.00;3.00;;;;;;;;4976657;28;45422;-60
2022/08/19 09:20:09;;;;;;;;;3.00;3.00;;;;;;;;4976551;28;46096;-60
2022/08/19 09:22:38;;;;;;;;;1.75;1.75;;;;;;;;4976542;28;45431;-60
2022/08/19 09:25:04;;;;;;;;;3.25;3.25;;;;;;;;4976622;28;45445;-61
2022/08/19 09:27:31;;;;;;;;;4.00;2.00;;;;;;;;4958932;28;45543;-61
2022/08/19 09:29:56;;;;;;;;;2.00;2.00;;;;;;;;4976492;28;45423;-58
2022/08/19 09:32:22;;;;;;;;;4.00;4.00;;;;;;;;4976409;28;45370;-60
2022/08/19 09:34:48;;;;;;;;;3.75;3.75;;;;;;;;4976745;28;45356;-59
2022/08/19 09:37:13;;;;;;;;;4.75;4.75;;;;;;;;4976546;28;45604;-60
2022/08/19 09:39:40;;;;;;;;;31.00;30.00;;;;;;;;4976368;28;45439;-59
2022/08/19 09:42:09;;;;;;;;;5.00;5.00;;;;;;;;4976326;28;45457;-59
2022/08/19 09:44:34;;;;;;;;;2.25;2.25;;;;;;;;4976618;28;45372;-61
2022/08/19 09:47:00;;;;;;;;;3.50;3.50;;;;;;;;4976231;28;45543;-59
2022/08/19 09:49:25;;;;;;;;;1.50;1.50;;;;;;;;4975918;28;46103;-60
2022/08/19 09:51:51;;;;;;;;;4.50;4.50;;;;;;;;4976246;28;45462;-60
2022/08/19 09:54:17;;;;;;;;;2.75;2.75;;;;;;;;4977543;28;45372;-60
2022/08/19 09:56:42;;;;;;;;;2.00;2.00;;;;;;;;4979655;28;45415;-61
2022/08/19 09:59:09;;;;;;;;;2.75;2.75;;;;;;;;4978843;28;46438;-61
2022/08/19 10:01:34;;;;;;;;;3.25;3.25;;;;;;;;4979437;28;45477;-59
2022/08/19 10:04:00;;;;;;;;;2.00;2.00;;;;;;;;4979520;28;45319;-60
2022/08/19 10:06:29;;;;;;;;;2.75;2.75;;;;;;;;4979613;28;45460;-61
2022/08/19 10:08:55;;;;;;;;;5.75;5.75;;;;;;;;4979427;28;45425;-60
2022/08/19 10:11:20;;;;;;;;;7.75;7.75;;;;;;;;4979913;28;45413;-59
2022/08/19 10:13:46;;;;;;;;;2.50;2.00;;;;;;;;4979383;28;45406;-61
2022/08/19 10:16:13;;;;;;;;;3.00;3.00;;;;;;;;4979231;28;45358;-61
2022/08/19 10:18:42;;;;;;;;;3.25;3.25;;;;;;;;4978968;28;45461;-60
2022/08/19 10:21:12;;;;;;;;;3.75;3.75;;;;;;;;4979133;28;45463;-58
2022/08/19 10:23:38;;;;;;;;;3.00;3.00;;;;;;;;4978849;28;45382;-59
2022/08/19 10:26:05;;;;;;;;;5.75;5.00;;;;;;;;4978956;28;45358;-59
2022/08/19 10:28:31;;;;;;;;;3.00;3.00;;;;;;;;4978821;28;45453;-59
2022/08/19 10:30:56;;;;;;;;;4.25;4.00;;;;;;;;4978524;28;45429;-59
2022/08/19 10:33:21;;;;;;;;;3.25;2.00;;;;;;;;4979078;28;45366;-61
2022/08/19 10:35:47;;;;;;;;;3.00;2.00;;;;;;;;4979155;28;45360;-61
2022/08/19 10:38:12;;;;;;;;;2.75;2.75;;;;;;;;4978963;28;46081;-60
2022/08/19 10:40:37;;;;;;;;;3.00;3.00;;;;;;;;4978766;28;45338;-61
2022/08/19 10:43:03;;;;;;;;;4.75;3.50;;;;;;;;4978798;28;45487;-61
2022/08/19 10:45:28;;;;;;;;;3.00;3.00;;;;;;;;4978814;28;45393;-61
2022/08/19 10:47:53;;;;;;;;;3.00;2.00;;;;;;;;4978422;28;46320;-60
2022/08/19 10:53:04;;;;;;;;;2.00;2.00;;;;;;;;4994364;28;45493;-62
2022/08/19 10:58:14;;;;;;;;;4.75;4.75;;;;;;;;4978357;28;45365;-64
2022/08/19 11:00:40;;;;;;;;;3.00;3.00;;;;;;;;4960952;28;45836;-65
2022/08/19 11:03:05;;;;;;;;;5.50;4.00;;;;;;;;4978953;28;45437;-65
2022/08/19 11:05:31;;;;;;;;;17.00;16.00;;;;;;;;4976564;28;45721;-65
2022/08/19 11:07:56;;;;;;;;;31.67;31.00;;;;;;;;4978192;28;45443;-65
2022/08/19 11:10:23;;;;;;;;;8.00;7.00;;;;;;;;4998275;28;45417;-65
2022/08/19 11:12:48;;;;;;;;;23.67;19.00;;;;;;;;4997934;28;45376;-65
2022/08/19 11:15:13;;;;;;;;;6.00;6.00;;;;;;;;4997577;28;45556;-65
2022/08/19 11:17:42;;;;;;;;;8.50;8.50;;;;;;;;4992438;28;45708;-63
2022/08/19 11:20:08;;;;;;;;;3.00;3.00;;;;;;;;4995833;28;45483;-64
2022/08/19 11:22:33;;;;;;;;;2.25;2.25;;;;;;;;4997662;28;45485;-63
2022/08/19 11:24:59;;;;;;;;;2.50;2.50;;;;;;;;4997565;28;45460;-65
2022/08/19 11:27:24;;;;;;;;;2.50;2.00;;;;;;;;4997326;28;45424;-64
2022/08/19 11:29:49;;;;;;;;;2.00;2.00;;;;;;;;4997458;28;45599;-64
2022/08/19 11:32:15;;;;;;;;;2.25;2.25;;;;;;;;4997696;28;45409;-64
2022/08/19 11:34:41;;;;;;;;;4.50;4.50;;;;;;;;4997695;28;45321;-65
2022/08/19 11:37:06;;;;;;;;;2.00;2.00;;;;;;;;4996293;28;46830;-64
2022/08/19 11:39:32;;;;;;;;;15.25;14.50;;;;;;;;4969695;28;45481;-64
2022/08/19 11:41:57;;;;;;;;;2.75;2.75;;;;;;;;4977466;28;45516;-63
2022/08/19 11:44:23;;;;;;;;;1.00;1.00;;;;;;;;4977358;28;45544;-64
2022/08/19 11:46:48;;;;;;;;;2.00;2.00;;;;;;;;4977674;28;46159;-65
2022/08/19 11:49:14;;;;;;;;;15.75;15.75;;;;;;;;4977347;28;45456;-63
2022/08/19 11:51:41;;;;;;;;;12.75;11.50;;;;;;;;4978136;28;45480;-63
2022/08/19 11:54:07;;;;;;;;;3.00;3.00;;;;;;;;4977772;28;45412;-64
2022/08/19 11:56:32;;;;;;;;;3.00;3.00;;;;;;;;4959979;28;46880;-63
2022/08/19 11:58:58;;;;;;;;;4.00;4.00;;;;;;;;4977584;28;45440;-66
2022/08/19 12:01:24;;;;;;;;;3.25;2.75;;;;;;;;4977632;28;45455;-64
2022/08/19 12:03:50;;;;;;;;;3.50;3.50;;;;;;;;4977569;28;45405;-65
2022/08/19 12:06:17;;;;;;;;;5.75;4.25;;;;;;;;4977413;28;45951;-65
2022/08/19 12:08:43;;;;;;;;;4.75;4.75;;;;;;;;4977058;28;45393;-63
2022/08/19 12:11:09;;;;;;;;;4.00;4.00;;;;;;;;4977831;28;45370;-64
2022/08/19 12:13:35;;;;;;;;;3.25;3.25;;;;;;;;4977458;28;45595;-66
2022/08/19 12:16:01;;;;;;;;;4.75;3.25;;;;;;;;4976485;28;45550;-64
2022/08/19 12:18:26;;;;;;;;;4.00;3.00;;;;;;;;4976726;28;45418;-64
2022/08/19 12:20:52;;;;;;;;;3.00;3.00;;;;;;;;4977524;28;45522;-65
2022/08/19 12:23:18;;;;;;;;;7.75;7.75;;;;;;;;4977323;28;45531;-64
2022/08/19 12:25:49;;;;;;;;;8.25;8.25;;;;;;;;4977090;28;45434;-65
2022/08/19 12:28:15;;;;;;;;;4.00;4.00;;;;;;;;4977053;28;45413;-64
2022/08/19 12:30:41;;;;;;;;;4.25;4.25;;;;;;;;4977228;28;45478;-63
2022/08/19 12:33:07;;;;;;;;;4.75;4.75;;;;;;;;4977106;28;45440;-63
2022/08/19 12:35:32;;;;;;;;;3.50;3.50;;;;;;;;4976977;28;46172;-65
2022/08/19 12:37:58;;;;;;;;;4.50;3.50;;;;;;;;4976683;28;45410;-65
2022/08/19 12:40:24;;;;;;;;;4.00;3.00;;;;;;;;4976921;28;45486;-64
2022/08/19 12:42:50;;;;;;;;;3.00;3.00;;;;;;;;4977022;28;45584;-65
2022/08/19 12:45:16;;;;;;;;;4.00;4.00;;;;;;;;4976581;28;46087;-64
2022/08/19 12:47:41;;;;;;;;;4.00;3.25;;;;;;;;4977281;28;45376;-66
2022/08/19 12:50:08;;;;;;;;;4.25;4.25;;;;;;;;4991791;28;45371;-66
2022/08/19 12:52:36;;;;;;;;;4.50;4.00;;;;;;;;4986961;28;45421;-64
2022/08/19 12:55:02;;;;;;;;;6.50;6.00;;;;;;;;4996062;28;45508;-65
2022/08/19 12:57:31;;;;;;;;;5.00;5.00;;;;;;;;4994349;28;45499;-64
2022/08/19 12:59:56;;;;;;;;;5.25;4.75;;;;;;;;4995106;28;45484;-64
2022/08/19 13:02:22;;;;;;;;;5.25;5.25;;;;;;;;4995046;28;45550;-67
2022/08/19 13:04:47;;;;;;;;;5.50;5.50;;;;;;;;4995782;28;45442;-64
2022/08/19 13:07:13;;;;;;;;;5.50;4.50;;;;;;;;4995989;28;45389;-64
2022/08/19 13:09:40;;;;;;;;;2.25;2.25;;;;;;;;4996156;28;45403;-64
2022/08/19 13:12:12;;;;;;;;;3.50;2.50;;;;;;;;4996989;28;45429;-63
2022/08/19 13:14:37;;;;;;;;;4.00;4.00;;;;;;;;4996259;28;45426;-64
2022/08/19 13:17:03;;;;;;;;;3.50;3.50;;;;;;;;4996167;28;45447;-63
2022/08/19 13:19:28;;;;;;;;;4.00;4.00;;;;;;;;4996480;28;45922;-66
2022/08/19 13:21:55;;;;;;;;;5.00;4.75;;;;;;;;4995433;28;45662;-63
2022/08/19 13:24:20;;;;;;;;;2.25;2.25;;;;;;;;4995976;28;45375;-62
2022/08/19 13:26:45;;;;;;;;;4.00;3.50;;;;;;;;4995205;28;45427;-66
2022/08/19 13:34:39;;;;;;;;;3.00;3.00;;;;;;;;4999310;28;45478;-66
2022/08/19 13:37:04;;;;;;;;;2.50;2.50;;;;;;;;4999421;28;45461;-66
2022/08/19 13:39:32;;;;;;;;;3.00;2.00;;;;;;;;4999327;28;45352;-64
2022/08/19 13:41:58;;;;;;;;;2.50;2.50;;;;;;;;4999343;28;45486;-64
2022/08/19 13:44:23;;;;;;;;;3.00;3.00;;;;;;;;4999377;28;45477;-68
2022/08/19 13:46:53;;;;;;;;;2.75;2.75;;;;;;;;4999330;28;45593;-68
2022/08/19 13:49:18;;;;;;;;;1.00;1.00;;;;;;;;4999098;28;45459;-64
2022/08/19 13:51:43;;;;;;;;;1.00;1.00;;;;;;;;4999529;28;45350;-64
2022/08/19 13:54:09;;;;;;;;;2.75;2.75;;;;;;;;4999018;28;45358;-65
2022/08/19 13:56:39;;;;;;;;;3.00;3.00;;;;;;;;4999158;28;45362;-64
2022/08/19 13:59:04;;;;;;;;;4.20;2.60;;;;;;;;4999286;28;45499;-66
2022/08/19 14:01:30;;;;;;;;;2.75;2.75;;;;;;;;4999126;28;45492;-65
2022/08/19 14:03:55;;;;;;;;;4.00;2.75;;;;;;;;4998714;28;46620;-65
2022/08/19 14:06:22;;;;;;;;;2.75;2.75;;;;;;;;4999094;28;45391;-62
2022/08/19 14:08:47;;;;;;;;;4.25;4.25;;;;;;;;4998980;28;45457;-64
2022/08/19 14:11:12;;;;;;;;;3.00;3.00;;;;;;;;4999547;28;45564;-64
2022/08/19 14:13:37;;;;;;;;;4.00;2.00;;;;;;;;4998509;28;46310;-65
2022/08/19 14:16:06;;;;;;;;;3.00;3.00;;;;;;;;4998628;28;45441;-66
2022/08/19 14:18:32;;;;;;;;;2.40;2.40;;;;;;;;4998772;28;45421;-64
2022/08/19 14:20:57;;;;;;;;;8.25;5.00;;;;;;;;4998431;28;45424;-63
2022/08/19 14:23:22;;;;;;;;;5.00;3.75;;;;;;;;4998720;28;45403;-62
2022/08/19 14:25:47;;;;;;;;;2.25;2.25;;;;;;;;4998534;28;45431;-65
2022/08/19 14:28:13;;;;;;;;;1.50;1.50;;;;;;;;4998685;28;45408;-63
2022/08/19 14:30:38;;;;;;;;;3.00;3.00;;;;;;;;4998467;28;45631;-64
2022/08/19 14:33:04;;;;;;;;;2.00;2.00;;;;;;;;4998685;28;45429;-65
2022/08/19 14:35:33;;;;;;;;;4.00;3.20;;;;;;;;4998822;28;45475;-65
2022/08/19 14:37:58;;;;;;;;;2.00;2.00;;;;;;;;4998724;28;45459;-67
2022/08/19 14:40:27;;;;;;;;;1.50;1.50;;;;;;;;4997590;28;45512;-64
2022/08/19 14:42:55;;;;;;;;;1.80;1.80;;;;;;;;4998142;28;46140;-63
2022/08/19 14:45:20;;;;;;;;;2.00;2.00;;;;;;;;4998225;28;45455;-65
2022/08/19 14:47:45;;;;;;;;;3.00;3.00;;;;;;;;4980488;28;45376;-63
2022/08/19 14:50:11;;;;;;;;;2.00;1.00;;;;;;;;4998057;28;45488;-64
2022/08/19 14:52:36;;;;;;;;;2.00;2.00;;;;;;;;4998122;28;46306;-64